Wind From: 03-04-2020 19:00 Until: 04-04-2020 00:59 warning for: Wind Level: Yellow info button

Οι άλλοι ιστότοποί μου:

SYKIA HOMEWEATHERSTATIONsikeaweather.alinos.eu

SYKIA METEOTEMPLATEsykiameteo.alinos.eu

alinos.eualinos.eu



Αναφορές γειτονικών METAR

   
LGEL - Elefsis (hel-Afb, Greece
Απόσταση από τον σταθμό: Α 77 km
Ενημερώθηκε: 03-04-2020 09:20
Σχεδόν νεφελώδης  
Σχεδόν νεφελώδης  
   Ανεμος: Απνοια
Ανεμος: Απνοια
Θερμοκρασία: 10°C
Σημείο Δρόσου: 5°C
Υγρασία: 71%
Βαρόμετρο: 1015 hPa
Νεφώσεις: Σχεδόν νεφελώδης
Ορατότητα: More than 10 km
Στοιχεία νεφών: Διάσπαρτα νέφη 2000 ft,
Σχεδόν νεφελώδης 2500 ft,
Σχεδόν νεφελώδης 7000 ft
LGEL 030620Z 00000KT 9999 FEW020 BKN025 BKN070 10/05 Q1015
LGRX - Araxos (civ/Afb), Greece
Απόσταση από τον σταθμό: Δ 110 km
Ενημερώθηκε: 03-04-2020 09:20
Σχεδόν νεφελώδης  
Σχεδόν νεφελώδης  
   Ανεμος: ΒΑ 7.4 km/h
Ανεμος: ΒΑ 7.4 km/h
Θερμοκρασία: 11°C
Σημείο Δρόσου: 7°C
Υγρασία: 77%
Βαρόμετρο: 1012 hPa
Νεφώσεις: Σχεδόν νεφελώδης
Ορατότητα: More than 10 km
Στοιχεία νεφών: Σχεδόν νεφελώδης 7000 ft
LGRX 030620Z 05004KT 9999 BKN070 11/07 Q1012
LGAV - Athens/Elef-Ven, Greece
Απόσταση από τον σταθμό: Α 113 km
Ενημερώθηκε: 03-04-2020 09:20
Διάσπαρτα νέφη  
Διάσπαρτα νέφη  
   Ανεμος: ΒΒΑ 11.1 km/h
Ανεμος: ΒΒΑ 11.1 km/h
Θερμοκρασία: 11°C
Σημείο Δρόσου: 5°C
Υγρασία: 67%
Βαρόμετρο: 1017 hPa
Νεφώσεις: Διάσπαρτα νέφη
Ορατότητα: More than 10 km
Στοιχεία νεφών: Διάσπαρτα νέφη 2500 ft
LGAV 030620Z 03006KT 9999 FEW025 11/05 Q1017 NOSIG
LGAD - Andravida (civ/A, Greece
Απόσταση από τον σταθμό: Δ 124 km
Ενημερώθηκε: 03-04-2020 09:20
Μερικώς νεφελώδης  
Μερικώς νεφελώδης  
   Ανεμος: Απνοια
Ανεμος: Απνοια
Θερμοκρασία: 12°C
Σημείο Δρόσου: 7°C
Υγρασία: 72%
Βαρόμετρο: 1012 hPa
Νεφώσεις: Μερικώς νεφελώδης
Ορατότητα: More than 10 km
Στοιχεία νεφών: Διάσπαρτα νέφη 3000 ft,
Μερικώς νεφελώδης 8000 ft
LGAD 030620Z 00000KT 9999 FEW030 SCT080 12/07 Q1012
LGKL - Kalamata (hel-Af, Greece
Απόσταση από τον σταθμό: ΝΝΔ 124 km
Ενημερώθηκε: 03-04-2020 09:20
Σχεδόν νεφελώδης  
Σχεδόν νεφελώδης  
   Ανεμος: Απνοια
Ανεμος: Απνοια
Θερμοκρασία: 13°C
Σημείο Δρόσου: 8°C
Υγρασία: 72%
Βαρόμετρο: 1012 hPa
Νεφώσεις: Σχεδόν νεφελώδης
Ορατότητα: More than 10 km
Στοιχεία νεφών: Διάσπαρτα νέφη 2500 ft,
Μερικώς νεφελώδης 3500 ft,
Σχεδόν νεφελώδης 8000 ft
LGKL 030620Z 00000KT 9999 FEW025 SCT035 BKN080 13/08 Q1012
LGBL - Nea Anchialos, Greece
Απόσταση από τον σταθμό: Β 129 km
Ενημερώθηκε: 03-04-2020 09:20
Διάσπαρτα νέφη  
Διάσπαρτα νέφη  
   Ανεμος: ΔΒΔ 5.6 km/h
Ανεμος: ΔΒΔ 5.6 km/h
Θερμοκρασία: 9°C
Αίσθηση ψύχους: 8°C
Σημείο Δρόσου: 7°C
Υγρασία: 87%
Βαρόμετρο: 1016 hPa
Νεφώσεις: Διάσπαρτα νέφη
Ορατότητα: More than 10 km
Στοιχεία νεφών: Διάσπαρτα νέφη 2500 ft
LGBL 030620Z 30003KT 9999 FEW025 09/07 Q1016

Αρχική γραφή από  Saratoga-weather.org Προσαρμογή στον ιστότοπο από  Weerstation Leuven

Βλέπε επίσης τις ενημερώσεις τού σταθμού μας στα παρακάτω δίκτυα:

European Weather Network

Weather Underground

AWEKAS

Citizen Weather Observer Program (CWOP)

HAMweather, WeatherForYou, PWS Weather

UK Metoffice

Equipment we use:

Μετεωρολογικός σταθμός
Davis Wireless Vantage Pro2

Davis Wireless Vantage Pro2